Home   Weather   Cyprus   Kyrenia   Past weeks
Flag for Cyprus

Past Weather in Kyrenia, Northern Cyprus, Cyprus — September 2019

Currently: 64 °F. Passing clouds. (Weather station: Ercan, Cyprus). See more current weather

September 2019 Weather in Kyrenia — Graph

°F

High & Low Weather Summary for September 2019

 TemperatureHumidityPressure
High100 °F (Sep 1, 2:20 pm)94% (Sep 10, 4:50 am)29.98 "Hg (Sep 10, 4:50 am)
Low63 °F (Sep 30, 6:20 am)13% (Sep 12, 1:50 pm)29.65 "Hg (Sep 4, 5:20 pm)
Average80 °F59%29.83 "Hg
* Reported Sep 1 12:20 am — Sep 30 11:50 pm, Kyrenia. Weather by CustomWeather, © 2021

Note: Actual official high and low records may vary slightly from our data, if they occured in-between our weather recording intervals... More about our weather records

Kyrenia Weather History for September 1, 2019

Scroll right to see more
 ConditionsComfort  
Time TempWeatherWind HumidityBarometerVisibility
12:20 am
Sun, Sep 1
81 °FClear.16 mph84%29.71 "Hg10 mi
12:50 am81 °FClear.15 mph84%29.71 "Hg10 mi
1:20 am79 °FClear.15 mph84%29.71 "Hg10 mi
1:50 am79 °FClear.15 mph84%29.71 "Hg10 mi
2:20 am79 °FClear.16 mph84%29.71 "Hg10 mi
2:50 am79 °FClear.16 mph84%29.68 "Hg10 mi
3:20 am79 °FClear.15 mph79%29.68 "Hg10 mi
3:50 am79 °FClear.15 mph79%29.68 "Hg10 mi
4:20 am79 °FClear.15 mph79%29.68 "Hg10 mi
4:50 am79 °FClear.15 mph79%29.68 "Hg10 mi
5:20 am77 °FClear.14 mph79%29.68 "Hg10 mi
5:50 am77 °FClear.13 mph74%29.68 "Hg10 mi
6:20 am77 °FSunny.14 mph69%29.68 "Hg10 mi
6:50 am77 °FSunny.13 mph69%29.71 "Hg10 mi
7:20 am77 °FSunny.13 mph74%29.71 "Hg10 mi
7:50 am81 °FSunny.15 mph66%29.71 "Hg10 mi
8:20 am82 °FSunny.16 mph55%29.71 "Hg10 mi
8:50 am86 °FSunny.17 mph35%29.71 "Hg10 mi
9:20 am90 °FSunny.17 mph27%29.71 "Hg10 mi
9:50 am91 °FSunny.15 mph24%29.71 "Hg10 mi
10:20 am95 °FPassing clouds.14 mph23%29.71 "HgN/A
10:50 am95 °FPassing clouds.12 mph23%29.71 "HgN/A
11:20 am97 °FPassing clouds.13 mph22%29.71 "HgN/A
11:50 am97 °FPassing clouds.10 mph19%29.71 "HgN/A
12:20 pm99 °FPassing clouds.14 mph19%29.71 "HgN/A
12:50 pm99 °FPassing clouds.13 mph15%29.71 "HgN/A
1:20 pm99 °FPassing clouds.12 mph16%29.71 "HgN/A
1:50 pm99 °FPassing clouds.10 mph17%29.71 "HgN/A
2:20 pm100 °FPassing clouds.10 mph15%29.71 "HgN/A
2:50 pm100 °FPassing clouds.10 mph14%29.68 "HgN/A
3:20 pm100 °FPassing clouds.9 mph16%29.68 "HgN/A
3:50 pm99 °FPassing clouds.9 mph17%29.68 "HgN/A
4:20 pm100 °FPassing clouds.10 mph16%29.68 "HgN/A
4:50 pm97 °FPassing clouds.17 mph18%29.68 "HgN/A
5:20 pm95 °FPassing clouds.18 mph19%29.68 "HgN/A
5:50 pm93 °FPassing clouds.17 mph19%29.68 "HgN/A
6:20 pm91 °FPassing clouds.15 mph24%29.71 "HgN/A
6:50 pm88 °FPassing clouds.15 mph33%29.71 "HgN/A
7:20 pm86 °FPassing clouds.15 mph43%29.71 "HgN/A
7:50 pm84 °FClear.13 mph45%29.71 "Hg10 mi
8:20 pm82 °FClear.10 mph55%29.71 "Hg10 mi
8:50 pm81 °FClear.12 mph58%29.74 "Hg10 mi
9:20 pm81 °FClear.13 mph66%29.74 "Hg10 mi
9:50 pm81 °FClear.17 mph70%29.74 "Hg10 mi
10:20 pm79 °FClear.17 mph74%29.74 "Hg10 mi
10:50 pm79 °FClear.17 mph74%29.74 "Hg10 mi
11:20 pm79 °FClear.15 mph74%29.74 "Hg10 mi
11:50 pm77 °FClear.14 mph79%29.74 "Hg10 mi
Weather by CustomWeather, © 2021

See weather overview